createdAt,value
2022-12-11T00:00:50.046Z,86.66
2022-12-11T00:03:22.587Z,85.90
2022-12-11T00:05:55.768Z,85.67
2022-12-11T00:08:28.355Z,85.79
2022-12-11T00:11:01.045Z,86.54
2022-12-11T00:13:33.636Z,85.90
2022-12-11T00:16:06.764Z,85.89
2022-12-11T00:18:39.875Z,86.21
2022-12-11T00:21:15.373Z,86.23
2022-12-11T00:23:48.128Z,85.93
2022-12-11T00:26:21.069Z,86.27
2022-12-11T00:28:56.521Z,85.54
2022-12-11T00:31:31.896Z,85.99
2022-12-11T00:34:04.546Z,86.76
2022-12-11T00:36:37.093Z,85.69
2022-12-11T00:39:12.032Z,85.87
2022-12-11T00:41:44.544Z,85.69
2022-12-11T00:44:17.065Z,85.79
2022-12-11T00:46:50.028Z,85.33
2022-12-11T00:49:22.577Z,85.40
2022-12-11T00:51:55.126Z,85.26
2022-12-11T00:54:27.648Z,86.76
2022-12-11T00:57:00.296Z,85.60
2022-12-11T00:59:32.868Z,85.04
2022-12-11T01:02:05.426Z,86.04
2022-12-11T01:04:38.102Z,85.24
2022-12-11T01:07:10.839Z,85.62
2022-12-11T01:10:01.833Z,85.54
2022-12-11T01:12:34.673Z,85.05
2022-12-11T01:15:08.043Z,85.66
2022-12-11T01:17:40.960Z,85.56
2022-12-11T01:20:13.532Z,85.50
2022-12-11T01:22:46.271Z,85.47
2022-12-11T01:25:19.120Z,85.65
2022-12-11T01:27:54.025Z,85.47
2022-12-11T01:30:26.804Z,85.34
2022-12-11T01:33:00.807Z,85.29
2022-12-11T01:35:33.401Z,84.32
2022-12-11T01:38:05.958Z,84.71
2022-12-11T01:40:38.548Z,85.28
2022-12-11T01:43:11.831Z,84.99
2022-12-11T01:45:48.171Z,85.32
2022-12-11T01:48:27.397Z,85.12
2022-12-11T01:51:04.994Z,85.59
2022-12-11T01:53:45.749Z,85.50
2022-12-11T01:56:19.221Z,85.79
2022-12-11T01:58:57.508Z,85.09
2022-12-11T02:01:54.208Z,84.81
2022-12-11T02:04:29.440Z,84.74
2022-12-11T02:07:03.583Z,84.43
2022-12-11T02:09:41.276Z,84.96
2022-12-11T02:12:39.243Z,85.49
2022-12-11T02:15:40.184Z,84.83
2022-12-11T02:18:47.992Z,85.84
2022-12-11T02:21:28.460Z,85.04
2022-12-11T02:24:16.235Z,84.93
2022-12-11T02:27:07.727Z,85.93
2022-12-11T02:29:53.732Z,85.11
2022-12-11T02:32:53.255Z,85.42
2022-12-11T02:35:40.755Z,85.28
2022-12-11T02:38:25.135Z,85.37
2022-12-11T02:41:00.705Z,85.29
2022-12-11T02:43:37.196Z,85.11
2022-12-11T02:46:10.636Z,85.09
2022-12-11T02:48:47.227Z,85.11
2022-12-11T02:51:26.704Z,84.71
2022-12-11T02:54:00.492Z,84.84
2022-12-11T02:56:46.357Z,84.56
2022-12-11T02:59:35.689Z,84.22
2022-12-11T03:02:08.621Z,84.22
2022-12-11T03:04:44.715Z,84.06
2022-12-11T03:07:27.473Z,84.66
2022-12-11T03:10:00.760Z,84.64
2022-12-11T03:12:39.686Z,84.31
2022-12-11T03:15:17.151Z,84.15
2022-12-11T03:18:09.737Z,83.25
2022-12-11T03:20:56.675Z,83.50
2022-12-11T03:23:42.069Z,83.35
2022-12-11T03:26:18.768Z,83.53
2022-12-11T03:28:58.757Z,84.24
2022-12-11T03:31:50.185Z,83.80
2022-12-11T03:34:43.963Z,84.04
2022-12-11T03:37:19.814Z,84.34
2022-12-11T03:39:59.213Z,83.88
2022-12-11T03:42:32.633Z,84.30
2022-12-11T03:45:08.737Z,83.54
2022-12-11T03:47:46.234Z,83.69
2022-12-11T03:50:24.777Z,83.73
2022-12-11T03:53:03.705Z,83.98
2022-12-11T03:55:40.549Z,83.96
2022-12-11T03:58:13.370Z,83.11
2022-12-11T04:00:48.843Z,83.82
2022-12-11T04:03:21.806Z,82.60
2022-12-11T04:05:56.017Z,82.98
2022-12-11T04:08:28.646Z,83.02
2022-12-11T04:11:23.009Z,82.84
2022-12-11T04:14:14.156Z,82.55
2022-12-11T04:16:46.956Z,81.49
2022-12-11T04:19:52.690Z,81.87
2022-12-11T04:22:44.126Z,81.94
2022-12-11T04:25:19.966Z,81.50
2022-12-11T04:27:53.420Z,81.76
2022-12-11T04:30:32.336Z,82.04
2022-12-11T04:33:09.472Z,82.26
2022-12-11T04:35:42.004Z,81.43
2022-12-11T04:38:16.013Z,81.72
2022-12-11T04:40:48.631Z,82.01
2022-12-11T04:43:22.104Z,82.04
2022-12-11T04:46:11.227Z,82.29
2022-12-11T04:48:45.249Z,82.76
2022-12-11T04:51:18.722Z,81.72
2022-12-11T04:53:51.219Z,82.32
2022-12-11T04:56:23.972Z,82.29
2022-12-11T04:58:56.543Z,82.71
2022-12-11T05:01:29.224Z,82.28
2022-12-11T05:04:02.304Z,82.31
2022-12-11T05:06:34.896Z,82.61
2022-12-11T05:09:13.921Z,82.11
2022-12-11T05:11:46.495Z,82.14
2022-12-11T05:14:19.852Z,81.51
2022-12-11T05:16:52.406Z,82.21
2022-12-11T05:19:25.920Z,81.29
2022-12-11T05:21:58.486Z,81.54
2022-12-11T05:24:33.302Z,81.65
2022-12-11T05:27:05.972Z,80.57
2022-12-11T05:29:38.676Z,80.65
2022-12-11T05:32:11.234Z,80.74
2022-12-11T05:34:43.953Z,80.44
2022-12-11T05:37:16.673Z,80.06
2022-12-11T05:39:49.348Z,79.94
2022-12-11T05:42:27.165Z,79.88
2022-12-11T05:45:01.479Z,80.34
2022-12-11T05:47:35.773Z,79.38
2022-12-11T05:50:09.092Z,79.56
2022-12-11T05:52:42.011Z,80.06
2022-12-11T05:55:15.013Z,80.62
2022-12-11T05:57:47.619Z,79.96
2022-12-11T06:00:20.505Z,79.94
2022-12-11T06:02:53.141Z,79.65
2022-12-11T06:05:26.839Z,79.61
2022-12-11T06:07:59.400Z,79.39
2022-12-11T06:10:32.853Z,79.40
2022-12-11T06:13:08.341Z,79.87
2022-12-11T06:15:41.027Z,79.52
2022-12-11T06:18:13.764Z,79.28
2022-12-11T06:20:46.324Z,78.98
2022-12-11T06:23:22.064Z,78.97
2022-12-11T06:25:54.677Z,79.55
2022-12-11T06:28:27.328Z,79.02
2022-12-11T06:31:01.120Z,79.47
2022-12-11T06:33:35.376Z,78.55
2022-12-11T06:36:16.691Z,78.68
2022-12-11T06:38:50.437Z,79.34
2022-12-11T06:41:23.042Z,79.04
2022-12-11T06:43:55.763Z,79.43
2022-12-11T06:46:28.475Z,79.02
2022-12-11T06:49:01.098Z,79.21
2022-12-11T06:51:33.848Z,79.03
2022-12-11T06:54:06.391Z,78.97
2022-12-11T06:56:39.014Z,79.34
2022-12-11T06:59:12.781Z,79.26
2022-12-11T07:01:45.816Z,78.79
2022-12-11T07:04:18.401Z,79.96
2022-12-11T07:06:51.152Z,79.56
2022-12-11T07:09:24.692Z,79.15
2022-12-11T07:11:57.644Z,79.69
2022-12-11T07:14:31.190Z,80.07
2022-12-11T07:17:03.795Z,79.36
2022-12-11T07:19:36.384Z,79.45
2022-12-11T07:22:09.057Z,79.00
2022-12-11T07:24:41.958Z,78.35
2022-12-11T07:27:14.521Z,78.38
2022-12-11T07:29:47.048Z,78.75
2022-12-11T07:32:19.665Z,79.04
2022-12-11T07:34:52.437Z,78.14
2022-12-11T07:37:25.309Z,79.03
2022-12-11T07:39:57.949Z,78.75
2022-12-11T07:42:30.560Z,79.65
2022-12-11T07:45:03.409Z,78.98
2022-12-11T07:47:36.062Z,79.01
2022-12-11T07:50:10.297Z,79.65
2022-12-11T07:52:42.872Z,78.83
2022-12-11T07:55:17.065Z,78.83
2022-12-11T07:57:49.807Z,78.97
2022-12-11T08:00:22.687Z,78.70
2022-12-11T08:02:55.308Z,78.91
2022-12-11T08:05:27.965Z,78.62
2022-12-11T08:08:00.592Z,78.54
2022-12-11T08:10:33.505Z,79.48
2022-12-11T08:13:06.321Z,78.89
2022-12-11T08:15:39.085Z,79.05
2022-12-11T08:18:11.782Z,79.03
2022-12-11T08:20:44.327Z,79.63
2022-12-11T08:23:17.088Z,79.54
2022-12-11T08:25:49.790Z,79.16
2022-12-11T08:28:23.953Z,79.88
2022-12-11T08:30:57.549Z,79.17
2022-12-11T08:33:30.562Z,79.11
2022-12-11T08:36:05.423Z,79.43
2022-12-11T08:38:38.393Z,78.86
2022-12-11T08:41:15.922Z,79.46
2022-12-11T08:43:48.768Z,79.20
2022-12-11T08:46:32.556Z,79.10
2022-12-11T08:49:05.153Z,79.37
2022-12-11T08:51:38.043Z,79.37
2022-12-11T08:54:11.746Z,78.81
2022-12-11T08:56:44.604Z,78.89
2022-12-11T08:59:18.739Z,78.23
2022-12-11T09:01:52.298Z,79.02
2022-12-11T09:04:27.161Z,79.34
2022-12-11T09:06:59.817Z,78.77
2022-12-11T09:09:32.439Z,78.32
2022-12-11T09:12:07.902Z,78.43
2022-12-11T09:14:40.427Z,79.36
2022-12-11T09:17:12.963Z,78.64
2022-12-11T09:19:48.073Z,78.94
2022-12-11T09:22:20.687Z,78.59
2022-12-11T09:24:56.260Z,78.90
2022-12-11T09:27:32.237Z,78.92
2022-12-11T09:30:05.768Z,78.78
2022-12-11T09:32:39.825Z,79.56
2022-12-11T09:35:14.969Z,78.11
2022-12-11T09:37:47.543Z,79.42
2022-12-11T09:40:20.638Z,78.63
2022-12-11T09:43:03.622Z,79.10
2022-12-11T09:45:36.294Z,78.47
2022-12-11T09:48:11.762Z,79.07
2022-12-11T09:50:48.159Z,78.57
2022-12-11T09:53:34.279Z,78.21
2022-12-11T09:56:26.112Z,78.08
2022-12-11T09:59:35.705Z,78.97
2022-12-11T10:02:45.242Z,78.58
2022-12-11T10:05:42.791Z,77.90
2022-12-11T10:09:12.225Z,78.35
2022-12-11T10:12:33.733Z,78.38
2022-12-11T10:15:23.603Z,78.42
2022-12-11T10:18:04.958Z,77.65
2022-12-11T10:20:40.456Z,78.28
2022-12-11T10:23:21.931Z,80.28
2022-12-11T10:26:23.133Z,79.08
2022-12-11T10:29:01.349Z,78.84
2022-12-11T10:31:58.915Z,79.14
2022-12-11T10:34:37.709Z,77.93
2022-12-11T10:37:10.303Z,78.53
2022-12-11T10:39:43.030Z,78.48
2022-12-11T10:42:22.484Z,77.70
2022-12-11T10:45:04.873Z,78.43
2022-12-11T10:47:37.630Z,77.08
2022-12-11T10:50:26.215Z,78.17
2022-12-11T10:53:01.947Z,77.04
2022-12-11T10:55:45.657Z,76.70
2022-12-11T10:58:26.724Z,77.60
2022-12-11T11:01:16.761Z,75.69
2022-12-11T11:04:06.647Z,76.40
2022-12-11T11:06:39.288Z,75.98
2022-12-11T11:09:36.053Z,76.80
2022-12-11T11:12:28.311Z,75.97
2022-12-11T11:15:15.528Z,76.26
2022-12-11T11:17:55.510Z,75.71
2022-12-11T11:20:31.706Z,75.80
2022-12-11T11:23:15.518Z,75.38
2022-12-11T11:26:07.522Z,74.75
2022-12-11T11:28:47.994Z,75.11
2022-12-11T11:31:31.502Z,74.55
2022-12-11T11:34:16.112Z,74.97
2022-12-11T11:37:05.979Z,75.07
2022-12-11T11:39:45.255Z,74.89
2022-12-11T11:42:36.372Z,74.02
2022-12-11T11:45:31.616Z,74.78
2022-12-11T11:48:45.516Z,73.53
2022-12-11T11:51:30.711Z,73.66
2022-12-11T11:54:37.424Z,72.99
2022-12-11T11:57:23.236Z,73.46
2022-12-11T12:00:10.823Z,72.74
2022-12-11T12:02:47.110Z,73.81
2022-12-11T12:05:32.022Z,73.21
2022-12-11T12:08:53.815Z,72.70
2022-12-11T12:11:32.740Z,71.68
2022-12-11T12:17:41.163Z,71.87
2022-12-11T12:20:38.918Z,71.92
2022-12-11T12:23:52.999Z,71.96
2022-12-11T12:26:37.234Z,71.28
2022-12-11T12:29:44.212Z,72.05
2022-12-11T12:32:55.379Z,71.75
2022-12-11T12:35:36.020Z,71.49
2022-12-11T12:38:32.883Z,71.50
2022-12-11T12:41:44.948Z,71.60
2022-12-11T12:44:22.610Z,72.10
2022-12-11T12:47:13.283Z,71.12
2022-12-11T12:49:50.098Z,71.34
2022-12-11T12:52:39.518Z,72.42
2022-12-11T12:55:23.635Z,70.93
2022-12-11T12:58:01.001Z,71.51
2022-12-11T13:00:42.662Z,71.47
2022-12-11T13:03:22.492Z,73.12
2022-12-11T13:06:24.737Z,72.05
2022-12-11T13:09:16.389Z,72.88
2022-12-11T13:11:55.120Z,72.58
2022-12-11T13:14:33.655Z,74.14
2022-12-11T13:17:27.006Z,72.66
2022-12-11T13:20:22.762Z,74.71
2022-12-11T13:23:10.277Z,75.05
2022-12-11T13:25:57.265Z,72.97
2022-12-11T13:28:33.870Z,72.25
2022-12-11T13:31:15.513Z,71.88
2022-12-11T13:33:52.909Z,72.91
2022-12-11T13:36:40.429Z,72.35
2022-12-11T13:39:25.146Z,72.16
2022-12-11T13:42:25.195Z,73.04
2022-12-11T13:44:58.973Z,74.66
2022-12-11T13:47:33.260Z,74.05
2022-12-11T13:50:26.311Z,74.15
2022-12-11T13:53:03.300Z,73.15
2022-12-11T13:55:36.098Z,74.28
2022-12-11T13:58:23.508Z,72.83
2022-12-11T14:01:22.134Z,72.66
2022-12-11T14:04:04.764Z,73.67
2022-12-11T14:06:39.854Z,76.88
2022-12-11T14:09:24.121Z,74.98
2022-12-11T14:11:59.065Z,74.16
2022-12-11T14:14:39.869Z,75.68
2022-12-11T14:17:25.973Z,72.64
2022-12-11T14:20:03.575Z,72.36
2022-12-11T14:22:39.415Z,72.57
2022-12-11T14:25:26.391Z,71.97
2022-12-11T14:27:59.001Z,73.31
2022-12-11T14:30:36.022Z,74.32
2022-12-11T14:33:11.808Z,74.81
2022-12-11T14:35:50.258Z,72.33
2022-12-11T14:38:37.417Z,73.23
2022-12-11T14:41:40.430Z,75.07
2022-12-11T14:44:21.660Z,73.72
2022-12-11T14:47:24.213Z,74.00
2022-12-11T14:50:07.967Z,72.21
2022-12-11T14:52:48.056Z,71.99
2022-12-11T14:55:30.321Z,72.38
2022-12-11T14:58:15.048Z,71.76
2022-12-11T15:01:22.771Z,71.05
2022-12-11T15:04:26.852Z,71.89
2022-12-11T15:07:00.169Z,71.64
2022-12-11T15:09:36.130Z,72.56
2022-12-11T15:12:16.692Z,72.05
2022-12-11T15:14:58.411Z,71.30
2022-12-11T15:17:31.355Z,71.31
2022-12-11T15:20:11.616Z,71.97
2022-12-11T15:22:44.621Z,72.10
2022-12-11T15:25:25.133Z,72.23
2022-12-11T15:28:00.936Z,72.13
2022-12-11T15:30:35.807Z,72.00
2022-12-11T15:33:11.326Z,72.55
2022-12-11T15:35:57.941Z,72.61
2022-12-11T15:38:41.788Z,72.32
2022-12-11T15:41:21.037Z,72.33
2022-12-11T15:43:59.191Z,73.13
2022-12-11T15:46:36.310Z,72.80
2022-12-11T15:49:13.261Z,73.43
2022-12-11T15:51:48.277Z,74.04
2022-12-11T15:54:21.147Z,73.25
2022-12-11T15:56:54.402Z,73.24
2022-12-11T15:59:27.956Z,73.44
2022-12-11T16:02:00.463Z,73.96
2022-12-11T16:04:32.941Z,73.67
2022-12-11T16:07:13.063Z,73.24
2022-12-11T16:09:47.038Z,72.64
2022-12-11T16:12:19.625Z,74.00
2022-12-11T16:14:52.492Z,73.41
2022-12-11T16:17:28.071Z,72.90
2022-12-11T16:20:00.607Z,72.25
2022-12-11T16:22:33.302Z,73.25
2022-12-11T16:25:06.632Z,72.87
2022-12-11T16:27:39.211Z,72.62
2022-12-11T16:30:13.342Z,72.97
2022-12-11T16:32:46.105Z,72.71
2022-12-11T16:35:20.723Z,73.63
2022-12-11T16:37:54.775Z,72.93
2022-12-11T16:40:27.402Z,75.15
2022-12-11T16:42:59.956Z,74.94
2022-12-11T16:45:33.890Z,73.70
2022-12-11T16:48:06.521Z,73.55
2022-12-11T16:50:40.429Z,76.25
2022-12-11T16:53:14.624Z,72.82
2022-12-11T16:55:47.249Z,73.61
2022-12-11T16:58:20.184Z,73.54
2022-12-11T17:00:53.303Z,73.86
2022-12-11T17:03:25.979Z,75.31
2022-12-11T17:05:59.234Z,73.29
2022-12-11T17:08:34.056Z,73.15
2022-12-11T17:11:11.853Z,72.67
2022-12-11T17:13:45.148Z,72.66
2022-12-11T17:16:17.705Z,72.81
2022-12-11T17:18:50.626Z,73.64
2022-12-11T17:21:25.210Z,73.65
2022-12-11T17:23:57.719Z,74.29
2022-12-11T17:26:30.332Z,73.69
2022-12-11T17:29:03.477Z,73.98
2022-12-11T17:31:36.038Z,74.20
2022-12-11T17:34:08.676Z,74.51
2022-12-11T17:36:41.504Z,75.00
2022-12-11T17:39:14.112Z,74.76
2022-12-11T17:41:46.675Z,75.14
2022-12-11T17:44:19.456Z,74.85
2022-12-11T17:46:52.894Z,74.66
2022-12-11T17:49:26.381Z,74.63
2022-12-11T17:51:59.401Z,74.40
2022-12-11T17:54:32.064Z,75.50
2022-12-11T17:57:06.492Z,74.68
2022-12-11T17:59:39.376Z,75.67
2022-12-11T18:02:12.258Z,74.62
2022-12-11T18:04:45.044Z,75.54
2022-12-11T18:07:19.624Z,74.93
2022-12-11T18:09:52.823Z,74.02
2022-12-11T18:12:25.834Z,74.20
2022-12-11T18:15:03.432Z,74.27
2022-12-11T18:17:36.186Z,74.75
2022-12-11T18:20:14.589Z,74.35
2022-12-11T18:22:47.632Z,74.36
2022-12-11T18:25:20.359Z,74.67
2022-12-11T18:27:55.162Z,75.01
2022-12-11T18:30:28.808Z,74.56
2022-12-11T18:33:01.452Z,74.77
2022-12-11T18:35:34.249Z,75.25
2022-12-11T18:38:07.789Z,74.76
2022-12-11T18:40:40.293Z,74.64
2022-12-11T18:43:13.318Z,75.64
2022-12-11T18:45:46.674Z,74.96
2022-12-11T18:48:19.211Z,74.38
2022-12-11T18:50:52.606Z,75.39
2022-12-11T18:53:25.311Z,75.10
2022-12-11T18:56:00.548Z,74.99
2022-12-11T18:58:34.001Z,74.62
2022-12-11T19:01:16.397Z,75.88
2022-12-11T19:03:51.570Z,75.87
2022-12-11T19:06:28.654Z,76.05
2022-12-11T19:09:04.231Z,75.79
2022-12-11T19:11:40.579Z,76.82
2022-12-11T19:14:13.832Z,76.85
2022-12-11T19:16:46.625Z,76.08
2022-12-11T19:19:22.109Z,76.54
2022-12-11T19:21:54.812Z,77.03
2022-12-11T19:24:27.843Z,76.41
2022-12-11T19:27:00.421Z,76.58
2022-12-11T19:29:33.136Z,76.69
2022-12-11T19:32:05.916Z,76.91
2022-12-11T19:34:38.548Z,76.99
2022-12-11T19:37:11.221Z,76.55
2022-12-11T19:39:43.714Z,76.80
2022-12-11T19:42:16.294Z,77.27
2022-12-11T19:44:48.945Z,76.77
2022-12-11T19:47:21.541Z,76.16
2022-12-11T19:49:54.175Z,76.76
2022-12-11T19:52:27.373Z,76.87
2022-12-11T19:55:04.738Z,76.02
2022-12-11T19:57:37.503Z,76.45
2022-12-11T20:00:10.796Z,76.40
2022-12-11T20:02:43.365Z,76.30
2022-12-11T20:05:16.548Z,75.92
2022-12-11T20:07:49.164Z,76.47
2022-12-11T20:10:21.802Z,75.80
2022-12-11T20:12:59.056Z,75.93
2022-12-11T20:15:32.073Z,75.74
2022-12-11T20:18:05.014Z,76.10
2022-12-11T20:20:38.240Z,75.82
2022-12-11T20:23:10.836Z,76.34
2022-12-11T20:25:43.454Z,75.92
2022-12-11T20:28:16.016Z,76.36
2022-12-11T20:30:50.019Z,76.09
2022-12-11T20:33:22.589Z,76.39
2022-12-11T20:35:55.186Z,76.16
2022-12-11T20:38:34.127Z,75.73
2022-12-11T20:41:12.005Z,76.31
2022-12-11T20:43:45.469Z,76.35
2022-12-11T20:46:18.603Z,76.58
2022-12-11T20:48:51.776Z,76.07
2022-12-11T20:51:26.611Z,77.14
2022-12-11T20:53:59.804Z,76.56
2022-12-11T20:56:32.644Z,76.08
2022-12-11T20:59:05.776Z,76.48
2022-12-11T21:01:40.151Z,76.05
2022-12-11T21:04:13.000Z,75.58
2022-12-11T21:06:45.719Z,76.11
2022-12-11T21:09:18.268Z,76.00
2022-12-11T21:11:51.356Z,76.54
2022-12-11T21:14:24.859Z,76.75
2022-12-11T21:16:59.307Z,75.95
2022-12-11T21:19:31.926Z,75.95
2022-12-11T21:22:04.627Z,76.17
2022-12-11T21:24:37.215Z,75.39
2022-12-11T21:27:10.041Z,75.74
2022-12-11T21:29:42.692Z,75.57
2022-12-11T21:32:15.188Z,76.68
2022-12-11T21:34:50.424Z,75.98
2022-12-11T21:37:23.344Z,76.19
2022-12-11T21:40:00.198Z,75.96
2022-12-11T21:42:32.762Z,75.52
2022-12-11T21:47:59.253Z,76.15
2022-12-11T21:50:32.045Z,75.95
2022-12-11T21:53:04.663Z,76.57
2022-12-11T21:55:41.437Z,76.27
2022-12-11T21:58:13.962Z,76.27
2022-12-11T22:00:46.629Z,76.01
2022-12-11T22:03:19.188Z,76.61
2022-12-11T22:05:51.766Z,76.89
2022-12-11T22:08:24.369Z,76.87
2022-12-11T22:10:57.163Z,76.90
2022-12-11T22:13:29.739Z,77.74
2022-12-11T22:16:02.486Z,77.40
2022-12-11T22:18:35.053Z,77.67
2022-12-11T22:21:08.048Z,77.48
2022-12-11T22:23:42.907Z,77.19
2022-12-11T22:26:20.662Z,77.32
2022-12-11T22:28:54.735Z,78.05
2022-12-11T22:31:28.145Z,78.16
2022-12-11T22:34:00.675Z,77.37
2022-12-11T22:36:33.200Z,77.99
2022-12-11T22:39:05.798Z,78.08
2022-12-11T22:41:41.968Z,77.56
2022-12-11T22:44:19.882Z,77.19
2022-12-11T22:46:52.529Z,77.47
2022-12-11T22:49:25.016Z,77.68
2022-12-11T22:51:57.691Z,77.35
2022-12-11T22:54:30.880Z,78.02
2022-12-11T22:57:03.613Z,77.97
2022-12-11T22:59:36.643Z,77.42
2022-12-11T23:02:09.344Z,77.35
2022-12-11T23:04:41.950Z,77.21
2022-12-11T23:07:14.615Z,76.99
2022-12-11T23:09:47.108Z,76.78
2022-12-11T23:12:19.724Z,76.55
2022-12-11T23:14:52.304Z,76.70
2022-12-11T23:17:25.100Z,77.04
2022-12-11T23:19:57.675Z,76.66
2022-12-11T23:22:30.614Z,77.59
2022-12-11T23:25:04.230Z,77.27
2022-12-11T23:27:36.779Z,77.49
2022-12-11T23:30:10.707Z,77.87
2022-12-11T23:32:43.362Z,77.84
2022-12-11T23:35:15.919Z,78.01
2022-12-11T23:37:48.491Z,78.54
2022-12-11T23:40:21.050Z,79.26
2022-12-11T23:42:53.629Z,79.27
2022-12-11T23:45:26.199Z,79.60
2022-12-11T23:47:58.758Z,79.93
2022-12-11T23:50:32.838Z,81.25
2022-12-11T23:53:05.832Z,81.50
2022-12-11T23:55:43.729Z,81.68
2022-12-11T23:58:16.237Z,81.53
